Time;durP1;ratioP1;P1;durP2;ratioP2;P2;SDS_P1;SDS_P2;PMS_P1;PMS_P2;Temp;Humidity;BMP_temperature;BMP_pressure;BME280_temperature;BME280_humidity;BME280_pressure;Samples;Min_cycle;Max_cycle;Signal;HPM_P1;HPM_P2
2021/01/05 00:01:26;;;;;;;21.33;14.35;;;1.20;99.90;;;;;;478462;248;27482;-70
2021/01/05 00:03:27;;;;;;;24.25;16.37;;;1.20;99.90;;;;;;478608;244;27450;-69
2021/01/05 00:05:28;;;;;;;23.05;15.40;;;1.20;99.90;;;;;;478874;248;27993;-69
2021/01/05 00:07:29;;;;;;;24.35;16.83;;;1.20;99.90;;;;;;469176;253;28045;-70
2021/01/05 00:09:31;;;;;;;21.90;14.98;;;1.20;99.90;;;;;;470396;252;27441;-69
2021/01/05 00:11:32;;;;;;;23.38;15.43;;;1.30;99.90;;;;;;478843;248;27453;-69
2021/01/05 00:13:33;;;;;;;22.10;15.95;;;1.20;99.90;;;;;;478878;248;27806;-69
2021/01/05 00:15:35;;;;;;;23.30;15.50;;;1.30;99.90;;;;;;478891;248;27421;-71
2021/01/05 00:17:36;;;;;;;22.62;15.55;;;1.20;99.90;;;;;;478841;248;27593;-70
2021/01/05 00:19:37;;;;;;;22.20;14.27;;;1.30;99.90;;;;;;469052;253;27986;-69
2021/01/05 00:21:38;;;;;;;25.27;15.15;;;1.30;99.90;;;;;;470212;252;27944;-70
2021/01/05 00:23:40;;;;;;;21.20;15.38;;;1.20;99.90;;;;;;478736;248;27467;-71
2021/01/05 00:25:41;;;;;;;23.25;15.75;;;1.20;99.90;;;;;;478722;248;27527;-70
2021/01/05 00:27:42;;;;;;;20.30;14.35;;;1.30;99.90;;;;;;478698;248;27490;-70
2021/01/05 00:29:43;;;;;;;22.17;15.43;;;1.30;99.90;;;;;;478696;248;27427;-70
2021/01/05 00:31:45;;;;;;;20.37;14.50;;;1.20;99.90;;;;;;468906;253;27474;-70
2021/01/05 00:33:46;;;;;;;21.87;14.70;;;1.20;99.90;;;;;;470197;252;27582;-70
2021/01/05 00:35:47;;;;;;;22.62;14.85;;;1.20;99.90;;;;;;478678;248;27885;-70
2021/01/05 00:37:48;;;;;;;24.42;16.08;;;1.30;99.90;;;;;;478710;248;27905;-71
2021/01/05 00:39:50;;;;;;;25.25;15.85;;;1.20;99.90;;;;;;478678;248;27453;-71
2021/01/05 00:41:51;;;;;;;23.55;15.50;;;1.10;99.90;;;;;;478506;248;27564;-71
2021/01/05 00:43:52;;;;;;;22.73;15.38;;;1.20;99.90;;;;;;468935;253;27473;-70
2021/01/05 00:45:53;;;;;;;22.15;15.45;;;1.20;99.90;;;;;;470145;252;27469;-70
2021/01/05 00:47:55;;;;;;;20.88;14.52;;;1.20;99.90;;;;;;478664;248;27451;-69
2021/01/05 00:49:56;;;;;;;24.30;16.27;;;1.10;99.90;;;;;;478724;248;27597;-70
2021/01/05 00:51:58;;;;;;;23.10;15.77;;;1.20;99.90;;;;;;478688;248;27965;-70
2021/01/05 00:53:58;;;;;;;24.63;16.20;;;1.20;99.90;;;;;;478743;248;27869;-70
2021/01/05 00:56:00;;;;;;;22.02;14.87;;;1.20;99.90;;;;;;469067;253;27554;-70
2021/01/05 00:58:01;;;;;;;23.45;16.75;;;1.30;99.90;;;;;;470262;252;27519;-70
2021/01/05 01:00:02;;;;;;;25.75;16.12;;;1.20;99.90;;;;;;478690;248;27473;-70
2021/01/05 01:02:03;;;;;;;25.05;16.08;;;1.20;99.90;;;;;;478711;248;27495;-70
2021/01/05 01:04:05;;;;;;;23.98;16.45;;;1.20;99.90;;;;;;468959;253;27478;-69
2021/01/05 01:06:06;;;;;;;22.25;14.65;;;1.20;99.90;;;;;;470211;252;28069;-71
2021/01/05 01:08:07;;;;;;;27.50;17.35;;;1.20;99.90;;;;;;478720;248;27859;-69
2021/01/05 01:10:08;;;;;;;26.40;17.40;;;1.30;99.90;;;;;;478624;248;28017;-70
2021/01/05 01:12:10;;;;;;;25.27;16.60;;;1.20;99.90;;;;;;478691;248;27581;-72
2021/01/05 01:14:11;;;;;;;25.75;17.40;;;1.20;99.90;;;;;;478748;248;27439;-70
2021/01/05 01:16:13;;;;;;;25.42;16.40;;;1.30;99.90;;;;;;478784;248;27453;-70
2021/01/05 01:18:13;;;;;;;24.63;16.33;;;1.30;99.90;;;;;;478779;248;27398;-69
2021/01/05 01:20:15;;;;;;;22.13;15.98;;;1.20;99.90;;;;;;469003;253;27570;-70
2021/01/05 01:22:16;;;;;;;24.70;17.23;;;1.30;99.90;;;;;;469070;253;28018;-71
2021/01/05 01:24:17;;;;;;;24.98;17.58;;;1.30;99.90;;;;;;470130;252;28277;-69
2021/01/05 01:26:18;;;;;;;29.17;17.92;;;1.20;99.90;;;;;;478191;248;27470;-71
2021/01/05 01:28:20;;;;;;;24.92;16.92;;;1.20;99.90;;;;;;478355;248;27410;-69
2021/01/05 01:30:21;;;;;;;27.00;17.77;;;1.10;99.90;;;;;;478665;248;27457;-70
2021/01/05 01:32:22;;;;;;;27.50;17.73;;;1.10;99.90;;;;;;468951;253;27597;-70
2021/01/05 01:34:24;;;;;;;27.65;17.52;;;1.10;99.90;;;;;;470187;252;27545;-69
2021/01/05 01:36:25;;;;;;;28.50;18.48;;;1.10;99.90;;;;;;478677;248;27466;-72
2021/01/05 01:38:26;;;;;;;28.08;19.00;;;1.10;99.90;;;;;;468955;253;28724;-70
2021/01/05 01:40:27;;;;;;;28.80;18.50;;;1.10;99.90;;;;;;468888;253;27968;-70
2021/01/05 01:42:29;;;;;;;33.28;19.60;;;1.10;99.90;;;;;;470177;252;27490;-69
2021/01/05 01:44:30;;;;;;;28.85;20.02;;;1.10;99.90;;;;;;478720;248;27505;-69
2021/01/05 01:46:31;;;;;;;28.02;19.90;;;1.00;99.90;;;;;;478719;244;27477;-69
2021/01/05 01:48:32;;;;;;;30.12;19.33;;;1.00;99.90;;;;;;478674;248;27438;-69
2021/01/05 01:50:34;;;;;;;34.88;19.60;;;1.00;99.90;;;;;;468906;253;27521;-69
2021/01/05 01:52:35;;;;;;;27.70;19.62;;;1.00;99.90;;;;;;470185;252;27478;-69
2021/01/05 01:54:36;;;;;;;28.55;19.00;;;1.10;99.90;;;;;;478716;248;28020;-69
2021/01/05 01:56:37;;;;;;;30.85;19.65;;;1.10;99.90;;;;;;478657;248;27987;-69
2021/01/05 01:58:39;;;;;;;31.40;20.65;;;1.10;99.90;;;;;;468962;253;27554;-69
2021/01/05 02:00:40;;;;;;;28.98;18.90;;;1.10;99.90;;;;;;470149;252;27488;-69
2021/01/05 02:02:41;;;;;;;30.20;18.58;;;1.10;99.90;;;;;;478676;248;27438;-69
2021/01/05 02:04:43;;;;;;;33.58;19.83;;;1.10;99.90;;;;;;478728;248;27489;-68
2021/01/05 02:06:44;;;;;;;33.65;20.15;;;1.10;99.90;;;;;;478701;248;27569;-69
2021/01/05 02:08:45;;;;;;;33.35;20.42;;;1.10;99.90;;;;;;478699;245;27934;-69
2021/01/05 02:10:46;;;;;;;31.08;19.80;;;1.10;99.90;;;;;;478650;248;28049;-69
2021/01/05 02:12:47;;;;;;;25.50;17.48;;;1.10;99.90;;;;;;478728;248;27723;-68
2021/01/05 02:14:49;;;;;;;28.02;18.25;;;1.00;99.90;;;;;;469005;253;27478;-68
2021/01/05 02:16:50;;;;;;;30.15;18.70;;;1.10;99.90;;;;;;470191;252;27569;-69
2021/01/05 02:18:51;;;;;;;28.35;18.23;;;1.20;99.90;;;;;;478692;248;27469;-69
2021/01/05 02:20:52;;;;;;;30.37;18.48;;;1.10;99.90;;;;;;478643;244;27552;-68
2021/01/05 02:22:54;;;;;;;27.80;18.67;;;1.10;99.90;;;;;;478683;248;27560;-68
2021/01/05 02:24:55;;;;;;;26.37;17.42;;;1.10;99.90;;;;;;478721;248;27917;-69
2021/01/05 02:26:56;;;;;;;28.42;18.58;;;1.00;99.90;;;;;;468939;253;27967;-69
2021/01/05 02:28:57;;;;;;;28.52;18.20;;;1.00;99.90;;;;;;470232;252;27449;-69
2021/01/05 02:30:59;;;;;;;27.92;17.10;;;1.00;99.90;;;;;;478726;248;27540;-69
2021/01/05 02:33:00;;;;;;;29.40;18.08;;;1.00;99.90;;;;;;478711;248;27431;-69
2021/01/05 02:35:01;;;;;;;31.48;17.50;;;1.00;99.90;;;;;;468960;253;27501;-69
2021/01/05 02:37:02;;;;;;;29.08;18.30;;;1.10;99.90;;;;;;470187;252;27799;-69
2021/01/05 02:39:04;;;;;;;27.30;17.50;;;1.00;99.90;;;;;;478670;248;27465;-69
2021/01/05 02:41:05;;;;;;;28.23;18.40;;;1.00;99.90;;;;;;478647;244;28257;-70
2021/01/05 02:43:06;;;;;;;30.35;17.83;;;1.00;99.90;;;;;;478703;248;27864;-68
2021/01/05 02:45:07;;;;;;;31.95;18.67;;;1.00;99.90;;;;;;468963;253;27474;-69
2021/01/05 02:47:09;;;;;;;22.77;15.70;;;1.00;99.90;;;;;;468935;253;27485;-70
2021/01/05 02:49:10;;;;;;;27.50;16.67;;;1.10;99.90;;;;;;470203;253;27477;-69
2021/01/05 02:51:11;;;;;;;31.58;17.92;;;1.10;99.90;;;;;;478692;248;27527;-69
2021/01/05 02:53:13;;;;;;;24.55;15.00;;;1.20;99.90;;;;;;478707;248;27482;-68
2021/01/05 02:55:14;;;;;;;23.92;16.50;;;1.20;99.90;;;;;;478729;248;27923;-69
2021/01/05 02:57:15;;;;;;;28.50;17.83;;;1.10;99.90;;;;;;468925;253;29153;-70
2021/01/05 02:59:16;;;;;;;28.30;17.40;;;1.10;99.90;;;;;;470168;252;27568;-68
2021/01/05 03:01:18;;;;;;;26.55;16.65;;;1.10;99.90;;;;;;478646;248;27543;-70
2021/01/05 03:03:19;;;;;;;28.62;17.67;;;1.20;99.90;;;;;;478373;248;27434;-68
2021/01/05 03:05:20;;;;;;;25.00;16.75;;;1.10;99.90;;;;;;478336;248;27808;-68
2021/01/05 03:07:21;;;;;;;27.30;16.77;;;1.10;99.90;;;;;;478730;248;27434;-70
2021/01/05 03:09:23;;;;;;;26.60;16.80;;;1.20;99.90;;;;;;469132;253;27534;-68
2021/01/05 03:11:24;;;;;;;27.17;16.48;;;1.20;99.90;;;;;;470304;252;27953;-69
2021/01/05 03:13:25;;;;;;;24.55;15.32;;;1.20;99.90;;;;;;478812;248;27869;-69
2021/01/05 03:15:26;;;;;;;25.40;15.80;;;1.20;99.90;;;;;;478738;248;27567;-69
2021/01/05 03:17:28;;;;;;;27.15;16.83;;;1.20;99.90;;;;;;478698;248;27455;-69
2021/01/05 03:19:29;;;;;;;23.38;15.07;;;1.20;99.90;;;;;;478760;248;27414;-69
2021/01/05 03:21:30;;;;;;;22.08;15.10;;;1.30;99.90;;;;;;468954;253;27530;-70
2021/01/05 03:23:31;;;;;;;24.33;14.90;;;1.20;99.90;;;;;;470183;252;27545;-68
2021/01/05 03:25:33;;;;;;;28.38;17.62;;;1.20;99.90;;;;;;478712;248;27464;-69
2021/01/05 03:27:34;;;;;;;24.17;14.75;;;1.20;99.90;;;;;;478688;245;27981;-69
2021/01/05 03:29:35;;;;;;;22.87;15.20;;;1.30;99.90;;;;;;478698;248;27993;-68
2021/01/05 03:31:36;;;;;;;25.95;15.95;;;1.30;99.90;;;;;;478688;248;27454;-69
2021/01/05 03:33:38;;;;;;;24.45;16.55;;;1.20;99.90;;;;;;468987;253;27474;-70
2021/01/05 03:35:39;;;;;;;22.33;14.90;;;1.20;99.90;;;;;;470197;252;27494;-69
2021/01/05 03:37:40;;;;;;;24.80;16.98;;;1.20;99.90;;;;;;478754;248;27458;-69
2021/01/05 03:39:41;;;;;;;25.48;16.27;;;1.20;99.90;;;;;;478713;248;27536;-69
2021/01/05 03:41:43;;;;;;;23.20;15.65;;;1.10;99.90;;;;;;478649;244;27458;-70
2021/01/05 03:43:44;;;;;;;23.90;15.77;;;1.20;99.90;;;;;;478717;248;28010;-70
2021/01/05 03:45:45;;;;;;;27.23;15.75;;;1.10;99.90;;;;;;468991;253;27626;-69
2021/01/05 03:47:46;;;;;;;26.62;17.25;;;1.00;99.90;;;;;;470184;252;27569;-69
2021/01/05 03:49:48;;;;;;;25.42;16.70;;;1.00;99.90;;;;;;478725;248;27501;-69
2021/01/05 03:51:49;;;;;;;30.75;17.12;;;1.00;99.90;;;;;;478686;248;27406;-69
2021/01/05 03:53:50;;;;;;;26.42;16.75;;;0.90;99.90;;;;;;478710;248;27529;-69
2021/01/05 03:55:51;;;;;;;30.33;18.50;;;0.90;99.90;;;;;;478742;248;27465;-69
2021/01/05 03:57:53;;;;;;;25.50;16.15;;;0.90;99.90;;;;;;469017;249;27995;-68
2021/01/05 03:59:54;;;;;;;28.33;16.75;;;1.00;99.90;;;;;;470297;252;29183;-69
2021/01/05 04:01:55;;;;;;;29.37;17.15;;;1.00;99.90;;;;;;478731;244;27521;-69
2021/01/05 04:03:57;;;;;;;28.33;17.87;;;1.00;99.90;;;;;;478701;248;27533;-68
2021/01/05 04:05:58;;;;;;;27.73;17.00;;;1.00;99.90;;;;;;478653;248;27455;-69
2021/01/05 04:07:59;;;;;;;29.40;16.83;;;0.90;99.90;;;;;;478681;248;27522;-69
2021/01/05 04:10:00;;;;;;;29.05;16.40;;;0.90;99.90;;;;;;468928;253;27478;-69
2021/01/05 04:12:02;;;;;;;27.83;17.00;;;0.90;99.90;;;;;;470170;252;27470;-68
2021/01/05 04:14:03;;;;;;;29.45;17.08;;;0.90;99.90;;;;;;478709;248;27972;-69
2021/01/05 04:16:04;;;;;;;27.75;16.73;;;0.90;99.90;;;;;;478733;248;28605;-69
2021/01/05 04:18:05;;;;;;;24.65;15.82;;;0.90;99.90;;;;;;478745;248;27525;-68
2021/01/05 04:20:07;;;;;;;30.10;15.70;;;1.00;99.90;;;;;;478669;248;27459;-69
2021/01/05 04:22:08;;;;;;;26.42;15.90;;;0.90;99.90;;;;;;469006;253;27495;-68
2021/01/05 04:24:09;;;;;;;25.77;15.43;;;0.90;99.90;;;;;;470332;252;27475;-69
2021/01/05 04:26:10;;;;;;;27.23;16.40;;;0.90;99.90;;;;;;478853;244;27537;-70
2021/01/05 04:28:12;;;;;;;26.08;16.80;;;0.90;99.90;;;;;;478846;248;27461;-68
2021/01/05 04:30:13;;;;;;;23.55;14.98;;;0.90;99.90;;;;;;478265;248;27443;-69
2021/01/05 04:32:14;;;;;;;24.77;15.45;;;0.90;99.90;;;;;;478509;248;27410;-68
2021/01/05 04:34:16;;;;;;;23.48;14.75;;;1.00;99.90;;;;;;478877;248;27517;-68
2021/01/05 04:36:17;;;;;;;26.98;15.88;;;1.00;99.90;;;;;;469068;253;27973;-69
2021/01/05 04:38:18;;;;;;;28.70;15.85;;;1.00;99.90;;;;;;470293;252;27995;-69
2021/01/05 04:40:19;;;;;;;29.08;17.00;;;1.00;99.90;;;;;;478682;248;28256;-69
2021/01/05 04:42:21;;;;;;;25.35;15.70;;;1.00;99.90;;;;;;478715;248;27470;-70
2021/01/05 04:44:22;;;;;;;25.60;15.57;;;0.90;99.90;;;;;;478731;248;27452;-69
2021/01/05 04:46:23;;;;;;;26.70;15.80;;;0.90;99.90;;;;;;478753;248;27801;-69
2021/01/05 04:48:24;;;;;;;24.95;14.73;;;0.90;99.90;;;;;;468994;253;27538;-68
2021/01/05 04:50:26;;;;;;;26.02;15.43;;;0.90;99.90;;;;;;470111;252;27545;-68
2021/01/05 04:52:27;;;;;;;25.98;15.20;;;1.00;99.90;;;;;;478706;248;27921;-69
2021/01/05 04:54:28;;;;;;;23.90;15.13;;;1.00;99.90;;;;;;478718;248;27991;-68
2021/01/05 04:56:29;;;;;;;26.90;15.35;;;1.00;99.90;;;;;;478738;248;27478;-70
2021/01/05 04:58:31;;;;;;;24.40;15.48;;;1.00;99.90;;;;;;478715;248;27430;-69
2021/01/05 05:00:35;;;;;;;23.48;15.38;;;0.90;99.90;;;;;;478648;248;27466;-68
2021/01/05 05:02:33;;;;;;;27.00;15.70;;;1.00;99.90;;;;;;478504;248;27459;-69
2021/01/05 05:04:34;;;;;;;24.48;15.80;;;1.00;99.90;;;;;;478701;248;27492;-68
2021/01/05 05:06:36;;;;;;;24.80;14.68;;;1.10;99.90;;;;;;478704;248;27541;-69
2021/01/05 05:08:37;;;;;;;27.52;15.50;;;1.10;99.90;;;;;;478719;248;27962;-69
2021/01/05 05:10:38;;;;;;;20.50;14.10;;;1.10;99.90;;;;;;478611;248;27998;-68
2021/01/05 05:12:39;;;;;;;20.37;13.52;;;1.20;99.90;;;;;;478672;248;27454;-68
2021/01/05 05:14:41;;;;;;;25.42;15.07;;;1.20;99.90;;;;;;478726;248;27468;-68
2021/01/05 05:16:42;;;;;;;23.62;14.90;;;1.20;99.90;;;;;;478710;248;27465;-69
2021/01/05 05:18:43;;;;;;;27.52;14.65;;;1.10;99.90;;;;;;478711;248;27465;-69
2021/01/05 05:20:44;;;;;;;24.37;15.05;;;1.10;99.90;;;;;;478592;248;27469;-69
2021/01/05 05:22:46;;;;;;;24.50;15.02;;;1.00;99.90;;;;;;468966;253;27474;-69
2021/01/05 05:24:47;;;;;;;27.95;17.37;;;0.90;99.90;;;;;;470209;252;28741;-68
2021/01/05 05:26:48;;;;;;;26.45;16.05;;;0.90;99.90;;;;;;478716;248;28024;-68
2021/01/05 05:28:49;;;;;;;28.15;15.45;;;0.90;99.90;;;;;;478708;248;27501;-69
2021/01/05 05:30:51;;;;;;;36.28;17.40;;;0.90;99.90;;;;;;478704;248;27468;-69
2021/01/05 05:32:52;;;;;;;31.70;17.67;;;0.90;99.90;;;;;;478816;248;27414;-68
2021/01/05 05:34:53;;;;;;;26.05;15.93;;;1.00;99.90;;;;;;469002;253;27820;-70
2021/01/05 05:36:54;;;;;;;30.70;18.15;;;1.00;99.90;;;;;;470215;252;27474;-70
2021/01/05 05:38:56;;;;;;;27.10;16.70;;;1.00;99.90;;;;;;478704;248;27964;-69
2021/01/05 05:40:57;;;;;;;28.85;17.00;;;1.00;99.90;;;;;;478565;244;27937;-69
2021/01/05 05:42:58;;;;;;;28.65;17.15;;;1.00;99.90;;;;;;478713;248;27536;-68
2021/01/05 05:44:59;;;;;;;28.85;16.85;;;1.10;99.90;;;;;;478755;248;27546;-70
2021/01/05 05:47:01;;;;;;;28.90;15.40;;;1.10;99.90;;;;;;468962;249;27465;-69
2021/01/05 05:49:02;;;;;;;29.65;17.90;;;1.10;99.90;;;;;;470170;252;27504;-68
2021/01/05 05:51:03;;;;;;;31.33;17.52;;;1.20;99.90;;;;;;478625;245;27489;-68
2021/01/05 05:53:05;;;;;;;27.23;15.90;;;1.10;99.90;;;;;;478733;248;27463;-69
2021/01/05 05:55:06;;;;;;;25.58;15.10;;;1.10;99.90;;;;;;478751;248;28026;-68
2021/01/05 05:57:07;;;;;;;25.00;15.90;;;1.00;99.90;;;;;;478684;248;28099;-69
2021/01/05 05:59:08;;;;;;;27.17;15.98;;;1.10;99.90;;;;;;468946;253;27502;-69
2021/01/05 06:01:10;;;;;;;26.55;15.20;;;1.10;99.90;;;;;;470157;252;27486;-71
2021/01/05 06:03:11;;;;;;;31.05;16.83;;;1.20;99.90;;;;;;478712;248;27429;-69
2021/01/05 06:05:12;;;;;;;25.95;16.05;;;1.20;99.90;;;;;;478732;248;27474;-70
2021/01/05 06:07:13;;;;;;;26.98;14.45;;;1.10;99.90;;;;;;478702;248;27784;-70
2021/01/05 06:09:15;;;;;;;26.30;14.98;;;1.00;99.90;;;;;;478719;248;27553;-69
2021/01/05 06:11:16;;;;;;;27.70;16.30;;;1.00;99.90;;;;;;468955;253;28069;-70
2021/01/05 06:13:17;;;;;;;27.35;15.25;;;1.10;99.90;;;;;;470316;252;27971;-70
2021/01/05 06:15:18;;;;;;;27.42;16.15;;;1.10;99.90;;;;;;478853;248;27450;-69
2021/01/05 06:17:20;;;;;;;25.83;14.60;;;1.10;99.90;;;;;;478820;248;27465;-70
2021/01/05 06:19:21;;;;;;;25.65;15.38;;;1.00;99.90;;;;;;478837;248;27478;-69
2021/01/05 06:21:22;;;;;;;26.33;16.05;;;1.00;99.90;;;;;;478843;248;27498;-70
2021/01/05 06:23:23;;;;;;;30.15;16.37;;;1.10;99.90;;;;;;469137;253;27531;-69
2021/01/05 06:25:25;;;;;;;29.08;16.12;;;1.00;99.90;;;;;;470386;252;27953;-69
2021/01/05 06:27:26;;;;;;;25.50;15.90;;;1.00;99.90;;;;;;478902;248;27929;-71
2021/01/05 06:29:27;;;;;;;25.67;16.00;;;1.00;99.90;;;;;;478901;248;27494;-69
2021/01/05 06:31:28;;;;;;;28.00;16.45;;;0.90;99.90;;;;;;469105;253;27473;-70
2021/01/05 06:33:30;;;;;;;30.05;16.35;;;0.90;99.90;;;;;;468989;253;27443;-70
2021/01/05 06:35:31;;;;;;;26.60;16.12;;;1.00;99.90;;;;;;470179;252;27490;-70
2021/01/05 06:37:32;;;;;;;27.77;16.10;;;1.10;99.90;;;;;;478671;248;27469;-70
2021/01/05 06:39:33;;;;;;;28.85;16.27;;;1.10;99.90;;;;;;468967;253;27503;-69
2021/01/05 06:41:35;;;;;;;31.10;16.83;;;1.00;99.90;;;;;;470204;252;28126;-71
2021/01/05 06:43:36;;;;;;;29.50;16.23;;;1.00;99.90;;;;;;478715;248;29861;-70
2021/01/05 06:45:37;;;;;;;28.50;15.45;;;1.00;99.90;;;;;;468973;249;27509;-70
2021/01/05 06:47:38;;;;;;;27.92;15.70;;;1.10;99.90;;;;;;470150;252;27566;-70
2021/01/05 06:49:40;;;;;;;27.50;15.95;;;1.10;99.90;;;;;;478729;248;27473;-70
2021/01/05 06:51:41;;;;;;;25.58;15.20;;;0.90;99.90;;;;;;478659;248;27457;-71
2021/01/05 06:53:42;;;;;;;25.08;14.48;;;1.00;99.90;;;;;;478722;248;27804;-71
2021/01/05 06:55:43;;;;;;;25.40;15.98;;;1.00;99.90;;;;;;478689;248;27461;-70
2021/01/05 06:57:45;;;;;;;29.67;16.23;;;1.00;99.90;;;;;;478700;248;28070;-69
2021/01/05 06:59:46;;;;;;;32.03;17.52;;;1.10;99.90;;;;;;478693;248;28974;-70
2021/01/05 07:01:47;;;;;;;27.95;16.60;;;1.10;99.90;;;;;;478646;248;27533;-70
2021/01/05 07:03:48;;;;;;;28.95;16.80;;;1.00;99.90;;;;;;478699;248;27489;-70
2021/01/05 07:05:50;;;;;;;27.10;15.52;;;1.10;99.90;;;;;;478700;248;27457;-70
2021/01/05 07:07:51;;;;;;;27.70;16.45;;;1.10;99.90;;;;;;468964;253;27532;-70
2021/01/05 07:09:52;;;;;;;29.75;16.37;;;1.10;99.90;;;;;;470206;252;27502;-69
2021/01/05 07:11:54;;;;;;;28.65;17.10;;;1.20;99.90;;;;;;478674;248;27868;-70
2021/01/05 07:13:55;;;;;;;27.75;16.65;;;1.20;99.90;;;;;;478695;248;28018;-70
2021/01/05 07:15:56;;;;;;;29.12;17.10;;;1.10;99.90;;;;;;478737;248;27916;-69
2021/01/05 07:17:58;;;;;;;28.45;17.67;;;1.10;99.90;;;;;;478796;248;27451;-69
2021/01/05 07:19:59;;;;;;;28.73;15.90;;;1.10;99.90;;;;;;469238;253;27522;-72
2021/01/05 07:22:00;;;;;;;23.55;15.10;;;1.10;99.90;;;;;;470512;252;27421;-70
2021/01/05 07:24:01;;;;;;;28.55;16.05;;;1.10;99.90;;;;;;479080;248;27466;-69
2021/01/05 07:26:02;;;;;;;29.67;16.65;;;1.20;99.90;;;;;;478981;248;27449;-70
2021/01/05 07:28:04;;;;;;;29.27;17.15;;;1.10;99.90;;;;;;468978;253;28875;-70
2021/01/05 07:30:05;;;;;;;33.53;17.10;;;1.00;99.90;;;;;;470166;252;27989;-70
2021/01/05 07:32:06;;;;;;;25.88;15.85;;;1.00;99.90;;;;;;478694;248;27445;-70
2021/01/05 07:34:07;;;;;;;30.65;17.10;;;1.00;99.90;;;;;;478696;244;27442;-70
2021/01/05 07:36:09;;;;;;;31.83;18.15;;;1.00;99.90;;;;;;468975;253;27559;-70
2021/01/05 07:38:10;;;;;;;33.20;17.75;;;1.00;99.90;;;;;;470241;252;27447;-70
2021/01/05 07:40:11;;;;;;;25.90;15.18;;;1.00;99.90;;;;;;478680;248;27457;-70
2021/01/05 07:42:12;;;;;;;29.55;17.12;;;1.00;99.90;;;;;;478708;248;27533;-69
2021/01/05 07:44:14;;;;;;;24.85;14.70;;;1.00;99.90;;;;;;468969;253;27958;-70
2021/01/05 07:46:15;;;;;;;31.37;17.12;;;1.00;99.90;;;;;;470324;252;28036;-70
2021/01/05 07:48:16;;;;;;;26.62;15.40;;;1.00;99.90;;;;;;478844;248;27495;-69
2021/01/05 07:50:17;;;;;;;26.15;15.82;;;1.00;99.90;;;;;;478785;248;27539;-69
2021/01/05 07:52:19;;;;;;;26.70;15.70;;;1.10;99.90;;;;;;469102;253;27572;-69
2021/01/05 07:54:20;;;;;;;23.58;14.07;;;1.20;99.90;;;;;;470388;252;27450;-70
2021/01/05 07:56:21;;;;;;;26.33;15.88;;;1.00;99.90;;;;;;478900;248;27450;-70
2021/01/05 07:58:22;;;;;;;24.23;14.40;;;1.00;99.90;;;;;;478897;248;27411;-69
2021/01/05 08:00:24;;;;;;;27.17;15.35;;;1.00;99.90;;;;;;469087;253;28065;-70
2021/01/05 08:02:25;;;;;;;28.55;15.63;;;1.00;99.90;;;;;;470374;252;28020;-72
2021/01/05 08:04:26;;;;;;;25.02;14.30;;;1.00;99.90;;;;;;478917;248;27407;-69
2021/01/05 08:06:27;;;;;;;26.98;15.30;;;1.10;99.90;;;;;;478899;248;27537;-69
2021/01/05 08:08:29;;;;;;;27.40;15.95;;;1.20;99.90;;;;;;469137;253;27440;-69
2021/01/05 08:10:30;;;;;;;26.48;16.30;;;1.10;99.90;;;;;;470323;252;27505;-70
2021/01/05 08:12:31;;;;;;;26.00;15.85;;;1.20;99.90;;;;;;478888;248;27552;-72
2021/01/05 08:14:32;;;;;;;25.70;15.50;;;1.30;99.90;;;;;;478848;248;27871;-69
2021/01/05 08:16:34;;;;;;;23.67;14.87;;;1.20;99.90;;;;;;468967;253;27945;-70
2021/01/05 08:18:35;;;;;;;24.02;15.10;;;1.10;99.90;;;;;;470198;252;27434;-69
2021/01/05 08:20:36;;;;;;;23.55;15.27;;;1.10;99.90;;;;;;478646;248;27533;-69
2021/01/05 08:22:37;;;;;;;25.15;16.08;;;1.10;99.90;;;;;;478660;244;27462;-70
2021/01/05 08:24:39;;;;;;;23.85;14.40;;;1.10;99.90;;;;;;468974;253;27499;-69
2021/01/05 08:26:40;;;;;;;29.10;16.15;;;1.20;99.90;;;;;;470155;252;27493;-71
2021/01/05 08:28:41;;;;;;;25.85;15.82;;;1.20;99.90;;;;;;478605;248;27410;-70
2021/01/05 08:30:43;;;;;;;25.75;14.70;;;1.10;99.90;;;;;;468757;253;28045;-70
2021/01/05 08:32:44;;;;;;;23.15;15.50;;;1.10;99.90;;;;;;470066;252;28690;-71
2021/01/05 08:34:45;;;;;;;25.00;15.35;;;1.00;99.90;;;;;;478596;248;27461;-70
2021/01/05 08:36:46;;;;;;;23.85;14.20;;;1.00;99.90;;;;;;478609;248;27494;-70
2021/01/05 08:38:48;;;;;;;23.40;14.70;;;1.00;99.90;;;;;;478644;248;27459;-71
2021/01/05 08:40:49;;;;;;;26.80;16.12;;;1.00;99.90;;;;;;478624;248;27461;-71
2021/01/05 08:42:50;;;;;;;23.62;14.00;;;1.10;99.90;;;;;;478709;248;27482;-69
2021/01/05 08:44:51;;;;;;;24.83;14.85;;;1.10;99.90;;;;;;478706;248;27542;-70
2021/01/05 08:46:53;;;;;;;28.05;15.70;;;1.10;99.90;;;;;;478729;248;28678;-69
2021/01/05 08:48:54;;;;;;;23.90;14.90;;;1.10;99.90;;;;;;469021;253;27940;-70
2021/01/05 08:50:55;;;;;;;25.85;15.75;;;1.10;99.90;;;;;;470142;252;27485;-70
2021/01/05 08:52:56;;;;;;;23.25;13.65;;;1.20;99.90;;;;;;478694;248;27532;-70
2021/01/05 08:54:58;;;;;;;26.62;15.55;;;1.10;99.90;;;;;;478706;248;27838;-71
2021/01/05 08:57:04;;;;;;;26.77;15.80;;;1.20;99.90;;;;;;469001;253;27504;-70
2021/01/05 08:59:00;;;;;;;29.98;15.18;;;1.20;99.90;;;;;;468588;253;27489;-70
2021/01/05 09:01:01;;;;;;;26.35;14.93;;;1.20;99.90;;;;;;470129;252;28094;-70
2021/01/05 09:03:03;;;;;;;22.05;14.25;;;1.20;99.90;;;;;;478634;244;28221;-69
2021/01/05 09:05:04;;;;;;;28.67;14.82;;;1.20;99.90;;;;;;478731;248;27933;-71
2021/01/05 09:07:05;;;;;;;21.33;13.35;;;1.20;99.90;;;;;;478702;248;27416;-69
2021/01/05 09:09:06;;;;;;;24.80;14.98;;;1.30;99.90;;;;;;478684;248;27458;-70
2021/01/05 09:11:08;;;;;;;25.58;15.73;;;1.20;99.90;;;;;;478661;244;27520;-71
2021/01/05 09:13:09;;;;;;;24.00;14.68;;;1.20;99.90;;;;;;478736;248;27525;-69
2021/01/05 09:15:10;;;;;;;21.87;14.43;;;1.20;99.90;;;;;;478753;248;27441;-70
2021/01/05 09:17:11;;;;;;;21.48;13.90;;;1.20;99.90;;;;;;478792;244;27935;-70
2021/01/05 09:19:13;;;;;;;23.35;14.07;;;1.10;99.90;;;;;;478827;248;28008;-70
2021/01/05 09:21:14;;;;;;;24.63;14.60;;;1.20;99.90;;;;;;478776;248;27843;-71
2021/01/05 09:23:15;;;;;;;23.85;14.80;;;1.20;99.90;;;;;;478823;248;27438;-69
2021/01/05 09:25:16;;;;;;;26.30;14.60;;;1.30;99.90;;;;;;478816;248;27513;-71
2021/01/05 09:27:18;;;;;;;25.30;14.23;;;1.30;99.90;;;;;;478851;248;27453;-69
2021/01/05 09:29:19;;;;;;;21.85;14.45;;;1.30;99.90;;;;;;478836;248;27495;-70
2021/01/05 09:31:20;;;;;;;27.27;15.20;;;1.30;99.90;;;;;;478770;248;27533;-71
2021/01/05 09:33:22;;;;;;;23.80;14.87;;;1.30;99.90;;;;;;478721;248;27974;-70
2021/01/05 09:35:23;;;;;;;21.67;14.10;;;1.20;99.90;;;;;;478699;248;28028;-70
2021/01/05 09:37:24;;;;;;;20.40;13.60;;;1.40;99.90;;;;;;478709;248;27452;-70
2021/01/05 09:39:25;;;;;;;22.48;13.98;;;1.30;99.90;;;;;;478738;248;27497;-71
2021/01/05 09:41:26;;;;;;;25.05;14.85;;;1.30;99.90;;;;;;478684;248;27450;-70
2021/01/05 09:43:28;;;;;;;22.73;14.02;;;1.40;99.90;;;;;;478717;248;27457;-69
2021/01/05 09:45:29;;;;;;;24.98;14.25;;;1.50;99.90;;;;;;478738;248;27513;-71
2021/01/05 09:47:30;;;;;;;22.17;14.35;;;1.40;99.90;;;;;;478770;248;27456;-70
2021/01/05 09:49:32;;;;;;;18.92;11.88;;;1.50;99.90;;;;;;478723;248;28024;-70
2021/01/05 09:51:33;;;;;;;19.33;12.23;;;1.50;99.90;;;;;;478680;244;27925;-71
2021/01/05 09:53:34;;;;;;;18.27;12.70;;;1.50;99.90;;;;;;478745;248;27445;-70
2021/01/05 09:55:37;;;;;;;22.33;13.20;;;1.30;99.90;;;;;;478773;248;27548;-71
2021/01/05 09:57:37;;;;;;;18.75;12.57;;;1.40;99.90;;;;;;478666;248;27768;-71
2021/01/05 09:59:38;;;;;;;18.75;11.95;;;1.50;99.90;;;;;;478716;248;27469;-69
2021/01/05 10:01:39;;;;;;;26.85;13.90;;;1.50;99.90;;;;;;478666;248;27466;-70
2021/01/05 10:03:40;;;;;;;22.02;12.57;;;1.50;99.90;;;;;;468940;253;28034;-69
2021/01/05 10:05:42;;;;;;;21.45;12.80;;;1.50;99.90;;;;;;470201;252;27948;-70
2021/01/05 10:07:43;;;;;;;24.40;14.52;;;1.50;99.90;;;;;;478703;248;27574;-70
2021/01/05 10:09:44;;;;;;;25.52;14.40;;;1.30;99.90;;;;;;478695;248;27526;-70
2021/01/05 10:11:45;;;;;;;23.70;14.98;;;1.30;99.90;;;;;;468938;253;27477;-70
2021/01/05 10:13:47;;;;;;;24.42;14.85;;;1.20;99.90;;;;;;470337;252;27463;-69
2021/01/05 10:15:48;;;;;;;24.12;15.30;;;1.30;99.90;;;;;;478812;248;27530;-70
2021/01/05 10:17:49;;;;;;;25.92;14.27;;;1.40;99.90;;;;;;478822;248;27471;-70
2021/01/05 10:19:50;;;;;;;24.27;15.13;;;1.40;99.90;;;;;;478226;248;27886;-69
2021/01/05 10:21:52;;;;;;;24.87;15.18;;;1.40;99.90;;;;;;478329;248;27909;-70